Portada
METAR-TAF:

METAR-TAF

Aeroports :

Musoma, Tanzània

latitud: 01-30S, longitud: 033-48E, altitud: 1147 m

Observació

L'informe es va fer fa 53 minuts, a les 18:00 UTC
Vent calma
Temperatura 25°C
Humitat 74%
Pressió 1016 hPa
Visibilitat 10 km o més
Escasses núvols a una alçada de 1800 ft
Escasses núvols a una alçada de 2000 ft, Cumulonimbus.
Cel ennuvolat a una alçada de 9000 ft

METAR: HTMU 301800Z 00000KT 9999 FEW018 FEW020CB BKN090 25/20 Q1016

Hora: 21:53 (18:53 UTC)


TAF: manca

Observacions i pronòstics meteorològics de més de 4000 aeroports (METAR i TAF).

Les estacions disponibles són els punts grocs i vermells al mapa.

Posi el ratolí al punt desitjat per veure el nom de l'estació.

Feu clic per veure les observacions i els pronòstics meteorològics.

Per canviar el mapa: feu clic els botons verds amb una creu de color negre per apropar; al botó verd amb un guió per allunyar la imatge; o en les fletxes verdes per a mapes adjacents.


METAR-TAF: